Date,TemperatureHighF,TemperatureAvgF,TemperatureLowF,DewpointHighF,DewpointAvgF,DewpointLowF,HumidityHigh,HumidityAvg,HumidityLow,PressureMaxIn,PressureMinIn,WindSpeedMaxMPH,WindSpeedAvgMPH,GustSpeedMaxMPH,PrecipitationSumIn
2012-1-1,63.0,54.9,40.5,58.3,39.1,21.8,89,59,33,30.37,30.05,8,1,15,0.01
2012-1-2,43.5,35.4,25.3,21.8,6.5,-6.2,49,33,21,30.42,30.25,8,2,17,0.00
2012-1-3,35.1,26.0,19.0,11.4,5.2,0.4,56,43,25,30.59,30.39,8,1,14,0.00
2012-1-4,53.4,36.0,22.3,35.4,19.4,7.3,82,55,24,30.42,30.21,5,0,11,0.00
2012-1-5,59.0,41.0,28.0,39.7,29.4,2.9,94,68,34,30.57,30.16,4,0,6,0.00
2012-1-6,68.0,49.7,32.2,49.4,38.5,8.3,84,68,42,30.39,30.05,4,0,11,0.00
2012-1-7,59.2,55.9,50.2,56.8,53.3,5.2,96,91,63,30.55,30.04,3,0,6,0.39
2012-1-8,59.7,51.7,47.7,58.0,50.2,25.6,98,94,91,30.28,30.10,3,1,4,0.14
2012-1-9,60.1,55.0,50.9,59.2,54.3,9.6,98,97,96,30.42,30.12,3,0,5,0.06
2012-1-10,58.1,54.4,51.1,56.7,53.4,48.5,99,96,93,30.23,29.78,3,0,6,0.11
2012-1-11,58.5,52.3,46.8,57.0,50.8,45.3,97,95,90,30.17,29.57,4,0,9,1.75
2012-1-12,57.7,38.7,26.2,48.2,33.9,11.1,97,84,52,30.11,29.70,8,0,17,0.11
2012-1-13,57.7,29.0,25.0,30.2,15.0,10.0,87,56,43,30.27,29.72,3,0,7,0.00
2012-1-14,25.0,25.0,25.0,15.2,15.2,15.2,66,66,66,30.27,30.27,0,0,0,0.00
2012-1-15,25.0,25.0,25.0,15.2,15.2,15.2,66,66,66,30.27,30.27,0,0,0,0.00
2012-1-16,25.0,25.0,25.0,15.2,15.2,15.2,66,66,66,30.27,30.27,0,0,0,0.00
2012-1-17,25.0,25.0,25.0,15.2,15.2,15.2,66,66,66,30.27,30.27,0,0,0,0.00
2012-1-18,25.0,25.0,25.0,15.2,15.2,15.2,66,66,66,30.27,30.27,0,0,0,0.00
2012-1-19,57.2,42.2,25.0,36.4,24.5,15.2,78,53,27,30.27,29.78,2,0,6,0.90
2012-1-20,65.1,56.1,48.7,62.3,50.6,34.1,94,82,51,29.82,29.67,2,0,4,0.01
2012-1-21,65.5,49.5,39.4,61.5,46.4,37.1,94,89,71,29.90,29.63,7,2,14,0.54
2012-1-22,59.5,53.6,40.8,56.4,51.0,39.2,96,91,85,29.89,29.65,4,1,12,0.00
2012-1-23,63.7,56.9,42.3,61.0,46.8,35.5,95,72,44,29.91,29.56,4,0,11,1.88
2012-1-24,60.3,46.0,33.3,40.0,32.2,26.1,93,63,30,30.07,29.90,0,0,0,0.00
2012-1-25,73.4,57.0,42.3,51.4,40.3,30.8,70,56,36,30.04,29.77,0,0,0,0.00
2012-1-26,62.1,59.8,49.5,59.0,56.0,46.6,93,88,69,29.78,29.45,0,0,0,0.89
2012-1-27,53.4,45.0,36.7,46.5,37.5,32.0,90,76,57,29.88,29.57,0,0,0,0.01
2012-1-28,54.3,42.7,28.2,39.7,24.4,4.7,91,57,20,30.17,29.85,0,0,1,0.00
2012-1-29,55.8,37.7,23.0,27.1,16.7,8.4,72,48,19,30.25,30.13,0,0,0,0.00
2012-1-30,64.6,46.7,30.0,23.5,18.8,13.8,56,38,18,30.22,30.09,0,0,1,0.00
2012-1-31,68.2,55.3,45.3,45.8,28.5,19.2,71,39,22,30.15,30.01,0,0,0,0.01
2012-2-1,59.7,56.7,53.2,58.9,55.1,45.8,99,94,71,30.01,29.86,0,0,0,0.86
2012-2-2,65.1,54.3,46.8,53.1,40.8,31.4,99,67,32,30.10,29.92,0,0,1,0.00
2012-2-3,62.4,53.3,41.2,47.2,37.2,31.9,86,57,38,30.13,30.01,0,0,0,0.05
2012-2-4,62.4,56.1,50.4,58.2,52.9,46.4,99,89,75,30.01,29.83,0,0,0,0.52
2012-2-5,60.6,53.9,43.9,56.7,48.7,41.1,99,84,62,30.00,29.85,0,0,0,0.04
2012-2-6,56.1,46.3,38.1,44.4,39.2,33.9,99,78,51,30.06,29.98,0,0,1,0.00
2012-2-7,58.5,45.7,32.0,38.6,31.2,24.8,94,62,31,30.07,29.96,1,0,3,0.00
2012-2-8,51.6,45.4,38.3,36.9,34.4,31.4,82,66,51,30.14,30.00,0,0,0,0.00
2012-2-9,45.7,38.1,32.7,31.5,27.9,25.2,77,67,53,30.14,29.99,0,0,0,0.00
2012-2-10,47.8,37.3,30.4,36.6,30.4,25.1,94,77,52,30.01,29.84,0,0,0,0.04
2012-2-11,38.1,30.2,22.5,36.6,11.3,-8.1,94,51,22,30.28,29.81,0,0,1,0.01
2012-2-12,41.0,27.2,17.4,10.4,4.0,-1.3,57,40,22,30.32,30.14,0,0,1,0.00
2012-2-13,49.5,34.5,19.4,32.9,19.0,9.5,83,56,31,30.14,29.82,0,0,0,0.07
2012-2-14,48.2,43.1,37.4,44.9,40.4,32.7,94,90,83,29.94,29.74,0,0,0,0.09
2012-2-15,64.2,51.3,35.2,48.8,42.1,32.6,97,74,48,30.02,29.84,0,0,1,0.12
2012-2-16,64.8,55.1,48.0,55.1,47.5,40.9,95,77,52,29.98,29.84,0,0,1,0.14
2012-2-17,62.6,50.6,41.4,42.5,36.7,28.3,86,63,31,30.00,29.88,2,0,4,0.00
2012-2-18,59.7,50.4,38.7,44.3,37.4,9.3,81,63,43,30.17,29.65,0,0,0,0.01
2012-2-19,59.0,41.6,31.1,43.1,37.0,16.2,94,84,69,30.19,29.58,0,0,0,0.47
2012-2-20,64.4,42.6,24.8,36.5,28.3,-4.8,90,63,20,30.17,29.59,0,0,2,0.00
2012-2-21,69.6,54.7,43.0,46.3,32.0,14.2,78,50,16,30.18,29.78,0,0,0,0.05
2012-2-22,55.0,51.8,41.7,53.3,46.8,23.8,98,85,48,30.00,29.69,1,0,3,0.00
2012-2-23,55.0,55.0,55.0,53.3,53.3,53.3,94,94,94,29.71,29.71,0,0,0,0.00
2012-2-24,55.0,55.0,55.0,53.3,53.3,53.3,94,94,94,29.71,29.71,0,0,0,0.00
2012-2-25,55.0,55.0,55.0,53.3,53.3,53.3,94,94,94,29.71,29.71,0,0,0,0.00
2012-2-26,55.0,55.0,55.0,53.3,53.3,53.3,94,94,94,29.71,29.71,0,0,0,0.00
2012-2-27,55.0,55.0,55.0,53.3,53.3,53.3,94,94,94,29.71,29.71,0,0,0,0.00
2012-2-28,55.0,55.0,55.0,53.3,53.3,53.3,94,94,94,29.71,29.71,0,0,0,0.00
2012-2-29,55.0,55.0,55.0,53.3,53.3,53.3,94,94,94,29.71,29.71,0,0,0,0.00
2012-3-1,55.0,55.0,55.0,53.3,53.3,53.3,94,94,94,29.71,29.71,0,0,0,0.00
2012-3-2,76.5,59.0,55.0,61.7,54.4,42.7,94,86,59,30.05,29.71,0,0,0,0.24
2012-3-3,58.5,48.1,38.7,44.6,25.7,13.9,75,46,21,30.27,30.04,0,0,1,0.00
2012-3-4,54.0,45.4,28.9,27.2,22.0,17.9,74,43,27,30.36,30.22,0,0,0,0.00
2012-3-5,56.1,47.2,35.1,30.6,21.0,10.3,57,39,20,30.74,30.26,0,0,1,0.00
2012-3-6,70.7,52.3,34.2,27.7,19.7,12.0,61,34,14,30.78,30.63,2,0,4,0.00
2012-3-7,75.6,61.5,50.5,49.4,44.0,27.6,77,55,39,30.72,30.55,0,0,0,0.00
2012-3-8,75.0,62.2,49.3,61.3,53.1,47.6,99,74,53,30.56,30.35,0,0,0,1.02
2012-3-9,60.6,48.2,40.5,48.8,31.9,22.3,99,60,26,30.71,30.52,0,0,1,0.27
2012-3-10,73.9,52.8,36.3,35.8,27.6,21.7,62,43,19,30.73,30.58,0,0,2,0.00
2012-3-11,71.4,61.3,48.9,53.1,42.9,29.9,67,52,46,30.70,30.52,2,0,4,0.00
2012-3-12,70.3,64.2,61.2,61.4,57.9,51.6,90,81,66,30.55,30.43,0,0,0,0.00
2012-3-13,85.1,70.0,60.4,65.2,59.1,52.2,95,73,37,30.53,30.42,0,0,1,0.00
2012-3-14,86.7,68.3,54.1,65.9,58.3,51.4,99,75,34,30.57,30.45,0,0,1,0.00
2012-3-15,89.1,73.3,57.2,67.0,58.3,51.5,99,66,34,30.58,30.41,0,0,1,0.00
2012-3-16,78.6,78.6,78.6,54.2,54.2,54.2,45,45,45,30.43,30.43,0,0,0,0.00
2012-3-17,78.6,78.6,78.6,54.2,54.2,54.2,45,45,45,30.43,30.43,0,0,0,0.00
2012-3-18,78.6,76.3,64.6,54.2,52.8,44.8,60,46,39,30.43,29.92,0,0,2,0.89
2012-3-19,88.9,72.5,61.3,58.3,53.7,48.6,75,56,31,29.99,29.83,1,0,3,0.00
2012-3-20,89.6,74.5,62.1,59.6,54.6,50.1,79,54,32,29.91,29.79,1,0,10,0.00
2012-3-21,83.3,72.9,63.7,61.8,56.4,51.2,78,59,39,29.93,29.83,3,0,12,0.00
2012-3-22,70.3,70.3,70.3,56.7,56.7,56.7,63,63,63,29.91,29.91,0,0,2,0.00
2012-3-23,82.9,71.3,61.7,69.0,57.3,45.1,99,65,39,30.05,29.78,0,0,2,0.76
2012-3-24,71.6,58.0,48.2,55.0,49.4,45.2,97,75,43,29.88,29.77,0,0,1,0.12
2012-3-25,75.6,59.0,44.1,58.4,49.9,43.5,99,77,43,29.95,29.84,2,0,2,0.00
2012-3-26,80.1,65.0,48.2,57.0,50.4,45.1,99,65,33,30.04,29.93,4,0,8,0.00
2012-3-27,87.8,68.2,50.9,54.6,49.0,44.0,83,55,29,30.11,30.01,2,0,4,0.00
2012-3-28,85.1,70.1,59.7,61.0,53.7,49.5,82,60,33,30.09,29.92,2,0,4,0.00
2012-3-29,84.4,68.5,55.6,63.6,56.7,51.8,97,71,37,29.98,29.85,2,0,3,0.00
2012-3-30,77.9,65.6,60.1,68.9,61.4,56.5,95,87,66,29.91,29.75,0,0,1,0.09
2012-3-31,84.9,66.4,58.3,66.8,61.9,57.6,99,87,51,29.84,29.73,0,0,2,0.02
2012-4-1,88.7,69.2,53.6,65.8,59.5,52.8,99,76,42,29.83,29.70,2,0,5,0.01
2012-4-2,90.3,73.1,60.3,68.6,62.2,58.8,99,73,39,29.83,29.70,4,0,7,0.00
2012-4-3,87.1,71.5,57.6,64.7,59.8,56.0,97,71,40,29.92,29.79,2,0,4,0.00
2012-4-4,84.7,69.0,59.4,67.1,60.8,55.2,97,78,43,29.83,29.64,4,0,5,0.06
2012-4-5,78.4,64.7,57.6,65.5,58.2,48.0,99,83,40,29.73,29.57,4,0,6,0.22
2012-4-6,69.6,58.3,48.0,54.3,42.8,36.9,89,60,34,30.03,29.73,6,1,14,0.00
2012-4-7,78.3,60.2,41.5,54.3,46.6,38.1,93,65,37,30.17,30.02,0,0,1,0.00
2012-4-8,77.2,62.4,50.0,54.2,48.7,42.7,99,66,35,30.16,30.06,0,0,1,0.00
2012-4-9,77.4,59.5,42.4,45.2,38.7,28.9,90,54,22,30.11,29.97,0,0,1,0.00
2012-4-10,51.1,46.3,46.0,42.9,42.7,42.0,88,87,75,30.01,29.97,0,0,0,0.00
2012-4-11,46.0,46.0,46.0,42.7,42.7,42.7,88,88,88,29.98,29.98,0,0,0,0.00
2012-4-12,71.1,56.2,33.6,38.4,32.8,27.0,83,47,23,30.04,29.88,0,0,0,0.00
2012-4-13,81.9,60.6,41.9,61.6,39.9,29.6,94,54,21,29.98,29.52,0,0,0,0.22
2012-4-14,84.6,69.4,56.5,58.4,49.8,41.7,70,52,39,29.99,29.84,0,0,0,0.00
2012-4-15,86.2,71.7,61.3,64.0,59.6,54.0,84,68,45,29.91,29.78,0,0,0,0.00
2012-4-16,83.3,70.6,63.0,66.9,61.6,57.3,94,75,47,29.98,29.78,0,0,1,0.13
2012-4-17,65.3,58.5,54.3,59.8,55.0,49.6,97,88,76,30.03,29.88,0,0,0,0.25
2012-4-18,76.5,62.2,52.0,54.9,50.3,46.3,92,69,41,29.91,29.78,2,0,4,0.02
2012-4-19,84.7,65.2,47.8,56.9,51.8,45.6,94,66,37,29.83,29.69,0,0,1,0.00
2012-4-20,83.3,66.8,56.8,64.1,57.9,38.2,95,76,39,29.97,29.56,0,0,1,0.00
2012-4-21,64.4,56.5,49.6,59.3,51.9,46.0,96,85,68,29.95,29.56,0,0,0,0.00
2012-4-22,77.4,55.1,42.8,46.3,42.0,37.2,97,65,39,29.97,29.56,0,0,1,0.00
2012-4-23,63.1,55.0,41.0,41.6,29.2,13.8,79,43,18,29.92,29.59,0,0,0,0.00
2012-4-24,76.1,57.0,37.4,45.3,38.0,31.2,92,55,27,29.92,29.92,0,0,1,0.00
2012-4-25,88.7,69.4,53.2,61.4,53.8,44.1,79,60,39,29.92,29.92,0,0,1,0.00
2012-4-26,82.4,72.6,65.5,66.0,61.6,56.1,87,70,54,29.92,29.92,0,0,0,0.00
2012-4-27,83.1,71.3,64.9,71.7,65.2,61.5,97,82,57,29.92,29.92,0,0,0,0.37
2012-4-28,88.2,72.8,61.2,65.5,61.1,56.2,98,72,39,29.92,29.92,2,0,4,0.01
2012-4-29,90.1,74.7,61.5,66.5,60.2,53.5,93,66,33,29.92,29.92,0,0,2,0.00
2012-4-30,89.8,74.7,59.0,66.2,61.5,56.9,95,68,40,29.92,29.92,0,0,2,0.00
2012-5-1,94.5,77.0,61.3,67.9,62.7,59.1,94,66,37,29.92,29.92,0,0,1,0.00
2012-5-2,96.8,79.3,65.7,69.1,64.5,60.3,92,65,36,29.92,29.92,0,0,2,0.00
2012-5-3,73.6,69.3,68.9,67.1,65.7,64.1,90,89,78,29.92,29.92,0,0,0,0.00
2012-5-4,83.5,69.7,68.2,68.7,66.1,65.8,93,89,62,29.92,29.92,0,0,0,0.53
2012-5-5,90.5,76.7,64.2,71.9,67.8,63.3,99,77,48,29.92,29.92,2,0,4,0.01
2012-5-6,93.0,76.9,67.8,71.3,64.4,58.7,95,70,36,29.92,29.92,4,0,5,0.02
2012-5-7,84.2,71.2,63.0,70.3,64.6,60.4,96,81,60,29.92,29.92,1,0,2,0.00
2012-5-8,83.7,72.2,63.0,68.9,63.9,60.2,99,78,52,29.92,29.92,4,0,7,0.00
2012-5-9,79.9,67.3,57.0,60.4,51.8,35.2,92,63,25,29.92,29.92,4,0,10,0.08
2012-5-10,80.2,65.1,47.7,52.1,45.0,38.8,94,54,27,29.92,29.92,0,0,0,0.00
2012-5-11,78.1,68.6,50.0,53.3,46.2,40.9,86,51,30,29.92,29.92,0,0,0,0.00
2012-5-12,77.0,70.6,64.8,64.1,56.4,53.3,93,63,54,29.92,29.92,0,0,0,0.12
2012-5-13,66.2,66.1,66.0,65.3,64.6,64.1,97,95,93,29.92,29.92,0,0,0,0.24
2012-5-14,68.7,65.2,63.1,66.3,64.1,62.3,97,96,92,29.92,29.92,0,0,0,0.24
2012-5-15,78.6,68.0,62.2,66.3,61.7,57.5,96,84,50,29.92,29.92,0,0,0,0.24
2012-5-16,83.8,69.6,56.1,57.5,54.4,50.2,98,68,34,29.92,29.92,0,0,0,0.24
2012-5-17,91.2,73.7,57.6,55.5,54.3,50.2,93,62,32,29.92,29.92,0,0,0,0.24
2012-5-18,91.2,78.2,64.8,60.3,58.8,54.6,81,58,32,29.92,29.92,0,0,0,0.53
2012-5-19,89.6,75.8,64.0,61.3,60.5,59.8,91,66,40,29.92,29.92,0,0,0,0.07
2012-5-20,85.6,75.0,66.0,60.6,60.1,59.1,83,64,44,29.92,29.92,0,0,0,0.00
2012-5-21,75.4,72.1,64.0,66.3,62.8,59.1,91,73,69,29.92,29.92,0,0,0,0.26
2012-5-22,70.9,66.6,64.0,63.2,61.3,55.8,91,84,60,29.92,29.92,0,0,0,0.07
2012-5-23,83.7,71.4,66.4,59.6,56.9,52.6,79,64,37,29.92,29.92,0,0,0,0.07
2012-5-24,90.9,72.4,63.5,63.3,56.8,52.6,80,63,37,29.92,29.92,0,0,0,0.00
2012-5-25,97.2,80.9,66.7,70.7,65.0,60.8,90,63,34,29.92,29.92,0,0,0,0.00
2012-5-26,98.8,81.6,65.5,71.3,63.8,56.5,96,62,29,29.92,29.92,0,0,0,0.00
2012-5-27,99.1,83.5,68.2,69.6,66.0,61.6,90,61,35,29.92,29.92,0,0,0,0.00
2012-5-28,98.4,83.9,74.7,69.3,65.5,60.9,74,58,34,29.92,29.92,0,0,1,0.00
2012-5-29,97.7,81.9,69.1,70.4,65.5,58.3,86,61,35,29.92,29.92,0,0,0,0.00
2012-5-30,97.3,79.2,61.7,68.4,57.5,22.5,97,57,11,29.92,29.92,0,0,0,0.00
2012-5-31,95.0,78.8,70.0,68.6,62.9,57.5,82,62,36,29.92,29.92,0,0,0,0.00
2012-6-1,73.9,67.1,56.1,65.1,55.5,47.8,92,69,47,29.92,29.92,0,0,0,0.05
2012-6-2,84.0,66.9,50.7,57.1,51.6,42.7,97,64,38,29.92,29.92,0,0,0,0.00
2012-6-3,91.8,74.6,58.1,71.3,62.4,55.2,94,70,40,29.92,29.92,0,0,0,0.05
2012-6-4,82.9,71.7,66.4,71.4,68.0,65.8,99,89,65,29.92,29.92,0,0,0,0.93
2012-6-5,86.9,74.2,67.8,70.3,64.8,55.1,98,75,40,29.92,29.92,0,0,0,0.18
2012-6-6,84.7,72.8,61.2,56.7,53.8,50.9,77,54,33,29.92,29.92,0,0,2,0.00
2012-6-7,88.0,74.5,60.3,65.5,57.5,53.0,81,58,34,29.92,29.92,1,0,2,0.00
2012-6-8,91.8,75.7,61.3,62.7,57.8,53.4,85,57,29,29.92,29.92,0,0,2,0.53
2012-6-9,89.6,77.1,66.7,66.2,59.7,54.0,80,59,34,29.92,29.92,0,0,1,0.01
2012-6-10,76.8,71.8,67.6,72.7,68.3,60.3,97,89,70,29.92,29.92,0,0,2,0.32
2012-6-11,91.0,76.3,67.8,76.3,70.9,65.3,98,85,58,29.92,29.92,2,0,4,0.11
2012-6-12,87.1,75.5,66.0,69.6,66.6,63.5,98,77,50,29.92,29.92,4,0,8,0.00
2012-6-13,92.3,78.4,64.0,75.0,59.1,52.5,86,56,30,29.92,29.92,0,0,2,0.00
2012-6-14,97.2,80.5,62.8,70.3,62.5,56.0,83,59,32,29.92,29.92,0,0,2,0.00
2012-6-15,96.6,80.9,68.9,69.1,66.4,62.0,93,65,40,29.92,29.92,0,0,0,0.00
2012-6-16,94.1,80.1,69.6,66.2,63.4,59.7,83,61,39,29.92,29.92,0,0,0,0.00
2012-6-17,81.7,77.2,64.2,64.3,63.5,60.4,89,65,56,29.92,29.92,0,0,0,0.00
2012-6-18,81.7,81.7,81.7,64.3,64.3,64.3,57,57,57,29.92,29.92,0,0,0,0.00
2012-6-19,81.7,81.7,81.7,64.3,64.3,64.3,57,57,57,29.92,29.92,0,0,0,0.00
2012-6-20,88.7,81.5,75.6,65.4,64.1,60.3,71,57,42,29.92,29.92,0,0,0,0.00
2012-6-21,100.4,74.1,69.1,65.6,63.1,57.6,83,73,28,29.92,29.92,1,0,3,0.00
2012-6-22,98.6,83.9,69.6,68.4,63.0,53.7,86,55,26,29.92,29.92,1,0,2,0.00
2012-6-23,103.5,85.7,71.6,66.5,57.3,29.6,71,45,12,29.92,29.92,0,0,0,0.00
2012-6-24,103.3,86.1,69.4,68.1,58.3,29.6,67,45,15,29.92,29.92,0,0,0,0.00
2012-6-25,102.6,83.0,70.3,71.1,63.7,56.9,78,58,26,29.92,29.92,0,0,0,0.00
2012-6-26,80.6,76.0,71.4,62.6,60.2,55.7,62,58,53,29.92,29.92,0,0,0,0.00
2012-6-28,101.7,86.4,77.0,56.7,51.4,29.6,51,35,12,29.92,29.92,0,0,0,0.00
2012-6-29,111.2,89.8,69.8,67.6,58.0,32.5,79,44,11,29.92,29.92,0,0,0,0.00
2012-6-30,110.5,91.7,73.9,70.5,64.2,36.6,82,48,16,29.92,29.92,0,0,0,0.00
2012-7-1,109.6,92.5,75.6,71.8,66.0,53.5,82,49,21,29.92,29.92,0,0,0,0.07
2012-7-2,100.6,86.9,76.5,72.0,66.6,61.9,74,54,34,29.92,29.92,0,0,0,0.00
2012-7-3,103.5,88.2,73.0,73.9,56.7,28.0,83,46,11,29.92,29.92,0,0,0,0.00
2012-7-4,104.4,85.9,73.9,74.1,66.6,58.2,92,58,26,29.92,29.92,0,0,1,0.12
2012-7-5,99.1,89.4,72.5,73.9,69.4,66.0,93,59,37,29.92,29.92,0,0,2,0.01
2012-7-6,99.1,99.1,99.1,67.0,67.0,67.0,38,38,38,29.92,29.92,0,0,0,0.01
2012-7-7,99.1,99.1,99.1,67.0,67.0,67.0,38,38,38,29.92,29.92,0,0,0,0.01
2012-7-8,99.1,99.1,99.1,67.0,67.0,67.0,38,38,38,29.92,29.92,0,0,0,0.01
2012-7-9,99.1,99.1,99.1,67.0,67.0,67.0,38,38,38,29.92,29.92,0,0,0,0.01
2012-7-10,99.1,99.1,99.1,67.0,67.0,67.0,38,38,38,29.92,29.92,0,0,0,0.01
2012-7-11,99.1,99.1,99.1,67.0,67.0,67.0,38,38,38,29.92,29.92,0,0,0,0.01
2012-7-12,99.1,99.1,99.1,67.0,67.0,67.0,38,38,38,29.92,29.92,0,0,0,0.01
2012-7-13,99.1,99.1,99.1,67.0,67.0,67.0,38,38,38,29.92,29.92,0,0,0,0.01
2012-7-14,99.1,99.1,99.1,67.0,67.0,67.0,38,38,38,29.92,29.92,0,0,0,0.01
2012-7-15,99.1,99.1,99.1,67.0,67.0,67.0,38,38,38,29.92,29.92,0,0,0,0.01
2012-7-16,99.1,99.1,99.1,67.0,67.0,67.0,38,38,38,29.92,29.92,0,0,0,0.01
2012-7-17,99.1,95.8,79.0,73.8,68.1,67.0,81,45,38,29.92,29.92,0,0,0,2.67
2012-7-18,92.5,78.3,72.9,76.7,73.0,67.5,97,85,59,29.92,29.92,0,0,1,0.12
2012-7-19,97.0,81.3,72.0,79.0,74.2,71.1,98,82,51,29.92,29.92,0,0,2,0.00
2012-7-20,92.8,82.0,72.1,78.2,74.6,69.5,97,80,58,29.92,29.92,2,0,7,0.13
2012-7-21,95.5,81.9,72.7,78.8,74.6,70.1,97,80,51,29.92,29.92,1,0,3,0.06
2012-7-22,92.3,81.5,71.2,76.4,72.4,69.1,95,76,55,29.92,29.92,6,0,14,0.01
2012-7-23,81.7,81.7,81.7,71.1,71.1,71.1,71,71,71,29.92,29.92,0,0,0,0.01
2012-7-24,81.7,81.7,81.7,71.1,71.1,71.1,71,71,71,29.92,29.92,0,0,0,0.01
2012-7-25,81.7,81.7,81.7,71.1,71.1,71.1,71,71,71,29.92,29.92,0,0,0,0.01
2012-7-26,98.2,84.2,81.1,74.3,71.8,69.2,79,68,43,29.92,29.92,0,0,4,0.01
2012-7-27,94.8,81.3,73.8,76.6,73.0,65.5,93,78,49,29.92,29.92,0,0,2,0.02
2012-7-28,98.6,81.1,69.1,79.0,72.1,66.6,98,78,40,29.92,29.92,2,0,5,0.24
2012-7-29,93.0,79.6,67.1,70.3,65.9,62.6,95,67,43,29.92,29.92,3,0,4,0.00
2012-7-30,97.5,83.1,70.0,73.0,69.0,65.0,89,66,41,29.92,29.92,2,0,4,0.00
2012-7-31,96.6,83.9,73.2,76.8,73.5,70.2,93,73,49,29.92,29.92,4,0,11,0.22
2012-8-1,101.7,84.7,74.7,79.1,72.3,65.8,97,71,36,29.92,29.92,5,0,10,0.01
2012-8-2,99.7,80.6,71.1,74.3,70.8,67.5,93,75,39,29.92,29.92,5,0,14,0.00
2012-8-3,92.8,80.7,73.6,78.9,75.0,70.3,94,84,62,29.92,29.92,1,0,4,0.01
2012-8-4,98.4,80.4,73.9,76.5,73.5,69.6,97,82,46,29.92,29.92,1,0,4,1.32
2012-8-5,90.1,79.1,73.6,77.5,74.1,71.7,95,86,64,29.92,29.92,0,0,1,0.01
2012-8-6,88.3,80.2,72.7,78.1,74.0,71.8,98,84,63,29.92,29.92,0,0,1,0.19
2012-8-10,71.4,71.1,70.9,70.2,69.9,69.7,96,96,95,29.92,29.92,0,0,1,1.29
2012-8-11,86.4,74.2,64.0,69.9,60.5,53.6,96,67,37,29.92,29.92,3,0,5,0.00
2012-8-12,87.6,72.2,57.0,63.3,57.0,51.2,98,65,34,29.92,29.92,7,0,14,0.00
2012-8-13,83.3,71.9,64.4,75.0,65.8,58.3,96,82,55,29.92,29.92,5,0,11,0.80
2012-8-14,91.2,77.7,68.4,75.3,69.2,63.6,99,78,45,29.92,29.92,3,0,4,0.00
2012-8-15,88.3,77.1,68.7,71.2,67.6,62.9,96,76,46,29.92,29.92,0,0,3,0.00
2012-8-16,95.2,79.8,66.7,74.5,69.8,66.2,99,75,45,29.92,29.92,1,0,8,0.00
2012-8-17,86.7,74.9,67.3,72.1,68.9,65.0,99,83,56,29.92,29.92,8,0,21,0.70
2012-8-18,82.6,75.5,69.8,70.8,67.9,64.4,96,79,59,29.92,29.92,2,0,4,0.12
2012-8-19,87.6,75.0,66.6,71.9,64.2,53.7,99,74,36,29.92,29.92,4,0,7,0.40
2012-8-20,88.3,73.5,59.5,61.1,56.6,50.0,94,62,32,29.92,29.92,2,0,4,0.00
2012-8-21,87.1,73.4,61.3,63.8,57.3,49.1,91,63,32,29.92,29.92,3,0,8,0.00
2012-8-22,90.1,74.4,60.1,64.6,58.3,51.1,95,64,31,29.92,29.92,4,0,15,0.00
2012-8-23,88.5,71.2,62.1,67.7,62.0,59.2,94,76,42,29.92,29.92,4,0,12,0.00
2012-8-26,95.4,85.5,71.8,68.7,64.6,60.3,80,53,35,29.92,29.92,3,0,14,0.00
2012-8-27,93.9,80.0,66.7,70.1,65.2,60.2,92,65,36,29.92,29.92,6,0,18,0.00
2012-8-28,90.3,80.0,69.6,73.5,69.1,64.3,85,71,53,29.92,29.92,3,0,18,0.00
2012-8-29,95.7,82.4,72.3,74.4,70.5,66.0,93,71,41,29.92,29.92,7,0,29,0.00
2012-8-30,85.5,79.6,75.7,74.0,72.4,71.2,88,80,65,29.92,29.92,1,0,4,0.00
2012-8-31,91.8,81.4,76.5,79.3,73.9,71.6,91,79,54,29.92,29.92,1,0,2,0.12
2012-9-1,89.2,80.1,74.5,79.7,74.2,72.3,95,83,63,29.92,29.92,0,0,1,0.05
2012-9-2,89.6,76.5,70.3,77.3,72.8,68.5,98,89,66,29.92,29.92,0,0,1,0.39
2012-9-3,82.0,74.7,69.3,76.4,72.5,69.0,99,93,80,29.92,29.92,0,0,0,0.02
2012-9-4,90.9,79.8,73.6,77.8,74.8,73.0,98,86,58,29.92,29.92,0,0,4,0.01
2012-9-5,92.8,83.6,70.7,77.3,73.1,68.5,96,73,53,29.92,29.92,2,0,9,0.09
2012-9-6,94.8,79.2,68.7,73.7,70.0,63.7,99,77,43,29.92,29.92,7,0,17,0.01
2012-9-7,95.7,81.4,69.4,75.4,70.5,66.4,97,74,42,29.92,29.92,2,0,13,0.00
2012-9-8,77.5,71.9,59.9,72.8,65.7,54.3,93,81,66,29.92,29.92,8,0,19,0.05
2012-9-9,82.6,66.6,52.0,57.6,54.1,50.8,99,69,38,29.92,29.92,2,0,4,0.00
2012-9-10,84.2,69.6,56.8,61.4,56.5,52.1,94,68,37,29.92,29.92,0,0,0,0.00
2012-9-11,88.9,71.7,57.9,63.8,58.3,55.3,94,67,36,29.92,29.92,0,0,2,0.00
2012-9-12,86.0,73.3,63.0,63.2,58.5,53.3,83,63,40,29.92,29.92,3,0,17,0.00
2012-9-13,87.3,72.3,59.7,62.8,58.6,55.6,92,66,40,29.92,29.92,3,0,15,0.00
2012-9-14,86.0,71.0,58.1,66.7,58.3,53.2,94,69,38,29.92,29.92,4,0,10,0.00
2012-9-15,86.7,73.1,60.6,65.0,59.7,55.7,92,67,39,29.92,29.92,4,0,15,0.00
2012-9-16,89.1,76.4,66.2,68.2,64.0,59.5,91,69,41,29.92,29.92,4,0,11,0.00
2012-9-17,83.8,72.8,67.8,72.5,68.4,66.3,99,87,60,29.92,29.92,1,0,8,2.26
2012-9-18,75.9,66.9,54.7,68.3,62.3,48.4,99,86,63,29.92,29.92,8,0,15,0.34
2012-9-19,76.8,60.2,45.3,50.8,46.3,40.3,98,66,31,29.92,29.92,8,1,23,0.00
2012-9-20,72.0,55.0,48.4,59.1,51.6,47.7,99,90,57,29.92,29.92,1,0,2,0.00
2012-9-21,69.6,66.3,64.4,59.1,57.7,55.4,83,75,62,29.92,29.92,0,0,4,0.00
2012-9-22,83.8,69.7,56.1,66.5,55.8,43.0,96,67,30,29.92,29.92,6,0,9,0.00
2012-9-23,76.3,62.2,53.2,51.7,41.2,28.2,88,53,21,29.92,29.92,7,1,15,0.00
2012-9-24,78.8,59.2,43.9,49.8,42.4,34.8,89,60,25,29.92,29.92,5,0,24,0.00
2012-9-25,84.9,67.8,53.4,57.5,52.2,47.1,82,61,36,29.92,29.92,4,0,19,0.00
2012-9-26,87.4,70.9,59.4,61.5,57.5,52.4,87,66,40,29.92,29.92,4,0,15,0.00
2012-9-27,89.2,72.9,61.0,70.1,63.5,58.5,94,76,44,29.92,29.92,9,0,20,0.00
2012-9-28,89.6,72.7,63.0,70.8,65.4,60.5,99,81,43,29.92,29.92,10,0,17,0.00
2012-9-29,78.4,70.2,62.4,68.4,63.7,53.4,96,81,62,29.92,29.92,7,0,14,0.00
2012-9-30,72.1,64.1,56.3,62.9,58.5,53.0,97,83,68,29.92,29.92,5,0,14,0.40
2012-10-1,77.0,68.9,62.2,74.8,67.2,61.7,99,95,83,29.92,29.92,0,0,0,0.79
2012-10-2,63.9,61.1,59.0,62.3,60.3,58.7,99,98,94,29.92,29.92,0,0,0,0.02
2012-10-6,59.5,54.4,51.4,50.3,47.3,42.9,84,77,70,29.92,29.92,8,0,17,0.02
2012-10-7,62.4,51.7,46.0,45.1,42.3,35.5,96,73,40,29.92,29.92,5,0,13,0.08
2012-10-8,59.7,50.4,43.2,49.4,45.0,41.6,99,83,61,29.92,29.92,7,0,20,0.22
2012-10-9,69.8,52.2,40.1,50.4,45.4,39.8,99,81,45,29.92,29.92,3,0,11,0.00
2012-10-10,71.8,59.5,47.3,58.0,52.4,45.9,99,79,59,29.92,29.92,4,0,17,0.00
2012-10-11,70.5,57.2,43.5,55.5,47.9,40.8,92,73,48,29.92,29.92,3,0,18,0.00
2012-10-12,71.4,64.0,59.4,68.6,60.5,53.6,99,89,73,29.92,29.92,0,0,0,0.87
2012-11-2,61.5,52.9,48.7,43.0,42.0,40.4,77,68,49,29.92,29.92,0,0,0,0.61
2012-11-3,83.5,63.1,43.5,58.2,47.0,37.6,91,61,31,29.92,29.92,7,0,23,0.05
2012-11-4,61.0,51.9,37.2,58.2,45.0,35.1,96,79,46,29.92,29.92,4,0,11,0.00
2012-11-5,62.1,47.8,35.6,43.3,38.7,33.0,98,74,43,29.92,29.92,2,0,10,0.01
2012-11-6,52.2,47.5,42.6,48.2,45.5,42.3,99,93,80,29.92,29.92,2,0,4,0.00
2012-11-7,53.1,45.3,40.1,47.4,42.3,39.1,99,90,67,29.92,29.92,6,0,11,0.00
2012-11-8,57.7,43.2,34.9,45.8,38.3,33.5,99,85,52,29.92,29.92,4,0,9,0.00
2012-11-9,68.7,48.9,32.2,50.2,38.8,31.2,99,73,36,29.92,29.92,2,0,8,0.00
2012-11-10,63.9,49.3,40.5,43.3,40.3,37.6,93,73,47,29.92,29.92,0,0,2,0.00
2012-11-11,73.0,60.6,47.7,51.4,45.4,37.2,73,60,33,29.92,29.92,5,1,14,0.00
2012-11-12,62.6,57.7,34.3,58.2,55.0,31.7,96,91,68,29.92,29.92,2,0,14,0.01
2012-11-13,51.8,40.9,31.8,32.4,27.2,23.4,91,61,36,29.92,29.92,7,1,14,0.00
2012-11-14,56.8,44.7,34.2,36.7,31.5,25.7,76,62,43,29.92,29.92,6,0,20,0.05
2012-11-15,60.1,46.1,33.3,42.0,31.8,25.3,93,62,30,29.92,29.92,6,0,16,0.00
2012-11-16,61.9,48.2,37.2,35.5,30.2,21.0,80,54,24,29.92,29.92,4,0,7,0.00
2012-11-17,63.5,47.8,35.4,37.9,31.3,25.3,81,58,27,29.92,29.92,1,0,2,0.00
2012-11-18,66.2,48.5,32.9,37.4,31.1,26.4,92,57,26,29.92,29.92,0,0,0,0.00
2012-11-19,63.1,42.7,36.1,42.8,34.4,30.6,88,74,49,29.92,29.92,0,0,0,0.00
2012-11-20,68.9,54.4,41.2,50.2,43.4,39.8,98,69,38,29.92,29.92,0,0,0,0.00
2012-11-21,69.6,54.5,42.1,48.9,44.3,39.9,96,72,45,29.92,29.92,0,0,0,0.00
2012-11-22,71.6,52.8,37.2,52.6,42.0,35.7,99,72,33,29.92,29.92,0,0,0,0.00
2012-11-23,61.0,51.3,40.6,51.0,40.9,25.9,89,70,38,29.92,29.92,0,0,0,0.00
2012-11-24,45.7,36.2,27.5,32.4,20.6,16.4,73,55,34,29.92,29.92,0,0,0,0.00
2012-11-25,59.7,40.6,24.1,29.8,21.7,15.3,87,54,21,29.92,29.92,0,0,0,0.00
2012-11-26,66.4,52.8,35.8,50.5,38.3,22.5,87,60,39,29.92,29.92,0,0,0,0.12
2012-11-27,54.1,44.5,37.6,51.9,41.4,32.8,99,89,79,29.92,29.92,0,0,0,0.07
2012-11-28,52.9,40.2,32.7,33.7,28.7,21.6,85,67,32,29.92,29.92,0,0,0,0.00
2012-11-29,62.1,42.8,27.5,37.0,27.7,19.3,89,61,23,29.92,29.92,0,0,1,0.00
2012-11-30,65.5,50.4,36.5,47.4,40.7,27.5,93,72,46,29.92,29.92,0,0,1,0.00
2012-12-1,71.8,55.3,41.0,55.8,46.7,40.5,99,76,46,29.92,29.92,0,0,0,0.00
2012-12-2,68.2,57.3,54.1,50.8,46.8,44.6,73,69,54,29.92,29.92,0,0,0,0.00
2012-12-25,52.7,50.1,43.2,51.3,47.8,38.3,96,92,83,29.92,29.92,2,0,2,5.02
2012-12-26,41.5,34.6,33.1,38.0,30.2,27.8,97,84,80,29.92,29.92,2,0,4,0.01
2012-12-27,36.9,32.2,29.7,28.1,26.7,25.6,87,80,68,29.92,29.92,2,0,7,0.00
2012-12-28,43.2,37.5,28.9,41.7,34.5,25.6,97,89,82,29.92,29.92,2,0,4,0.28
2012-12-29,42.3,35.6,30.7,42.0,30.5,21.4,99,82,68,29.92,29.92,7,0,12,0.05
2012-12-30,31.8,28.2,25.5,21.7,19.2,17.4,72,69,65,29.92,29.92,7,1,14,0.00